createdAt,value
2018-12-04T00:02:00.835Z,6.73
2018-12-04T00:04:43.332Z,12.60
2018-12-04T00:10:24.884Z,11.37
2018-12-04T00:13:07.437Z,13.57
2018-12-04T00:15:49.445Z,10.20
2018-12-04T00:18:31.432Z,8.53
2018-12-04T00:21:14.760Z,10.53
2018-12-04T00:23:56.541Z,6.90
2018-12-04T00:26:39.479Z,7.57
2018-12-04T00:29:21.709Z,12.13
2018-12-04T00:32:04.730Z,11.90
2018-12-04T00:34:46.456Z,7.17
2018-12-04T00:37:28.540Z,9.97
2018-12-04T00:40:10.492Z,14.27
2018-12-04T00:42:52.767Z,7.33
2018-12-04T00:45:34.840Z,10.07
2018-12-04T00:48:21.872Z,6.17
2018-12-04T00:51:06.309Z,9.23
2018-12-04T00:53:48.179Z,8.63
2018-12-04T00:56:30.696Z,6.70
2018-12-04T00:59:12.970Z,7.73
2018-12-04T01:01:57.669Z,10.37
2018-12-04T01:04:39.920Z,10.17
2018-12-04T01:07:25.486Z,7.73
2018-12-04T01:10:07.468Z,6.63
2018-12-04T01:12:49.291Z,7.27
2018-12-04T01:15:31.592Z,9.20
2018-12-04T01:18:15.181Z,10.53
2018-12-04T01:20:59.757Z,9.13
2018-12-04T01:23:43.925Z,10.57
2018-12-04T01:26:29.667Z,9.33
2018-12-04T01:29:14.985Z,15.50
2018-12-04T01:31:56.907Z,10.70
2018-12-04T01:34:39.001Z,11.37
2018-12-04T01:37:21.635Z,11.53
2018-12-04T01:40:03.554Z,9.80
2018-12-04T01:42:45.981Z,10.50
2018-12-04T01:45:27.576Z,13.80
2018-12-04T01:48:09.328Z,13.60
2018-12-04T01:50:51.412Z,9.63
2018-12-04T01:53:22.175Z,13.27
2018-12-04T01:56:12.123Z,13.63
2018-12-04T01:58:54.493Z,10.17
2018-12-04T02:01:36.763Z,18.63
2018-12-04T02:04:18.665Z,13.07
2018-12-04T02:07:00.907Z,13.43
2018-12-04T02:09:42.810Z,15.77
2018-12-04T02:12:25.152Z,11.40
2018-12-04T02:15:28.619Z,14.58
2018-12-04T02:17:57.751Z,12.57
2018-12-04T02:20:26.930Z,13.27
2018-12-04T02:22:56.077Z,14.33
2018-12-04T02:25:25.711Z,11.67
2018-12-04T02:27:54.979Z,11.20
2018-12-04T02:30:24.258Z,12.57
2018-12-04T02:32:54.646Z,10.33
2018-12-04T02:35:23.843Z,15.43
2018-12-04T02:37:53.048Z,12.63
2018-12-04T02:40:22.383Z,10.23
2018-12-04T02:42:53.511Z,13.07
2018-12-04T02:45:22.816Z,15.17
2018-12-04T02:47:52.005Z,12.53
2018-12-04T02:50:22.868Z,18.90
2018-12-04T02:52:52.019Z,12.80
2018-12-04T02:55:22.209Z,11.33
2018-12-04T02:57:51.363Z,13.10
2018-12-04T03:00:20.743Z,12.20
2018-12-04T03:23:47.591Z,14.60
2018-12-04T03:26:16.782Z,14.77
2018-12-04T03:28:45.910Z,9.93
2018-12-04T03:31:15.079Z,15.90
2018-12-04T03:33:44.232Z,11.33
2018-12-04T03:36:13.374Z,15.67
2018-12-04T03:38:42.543Z,12.97
2018-12-04T03:41:11.659Z,17.13
2018-12-04T03:43:40.847Z,15.73
2018-12-04T03:46:10.126Z,17.00
2018-12-04T03:48:39.250Z,18.03
2018-12-04T03:51:08.466Z,15.70
2018-12-04T03:53:37.645Z,12.00
2018-12-04T03:56:06.801Z,17.23
2018-12-04T03:58:35.951Z,11.07
2018-12-04T04:01:05.101Z,16.07
2018-12-04T04:03:34.275Z,12.37
2018-12-04T04:06:03.535Z,12.50
2018-12-04T04:08:32.685Z,10.73
2018-12-04T04:11:01.935Z,10.80
2018-12-04T04:13:31.066Z,15.03
2018-12-04T04:16:00.246Z,13.17
2018-12-04T04:18:29.406Z,15.53
2018-12-04T04:20:58.641Z,14.23
2018-12-04T04:23:27.819Z,13.13
2018-12-04T04:25:57.221Z,12.37
2018-12-04T04:28:26.511Z,14.93
2018-12-04T04:30:55.697Z,13.57
2018-12-04T04:33:25.009Z,15.83
2018-12-04T04:35:58.977Z,9.27
2018-12-04T04:38:28.178Z,13.40
2018-12-04T04:40:57.466Z,10.20
2018-12-04T04:43:26.602Z,9.07
2018-12-04T04:45:55.726Z,11.33
2018-12-04T04:48:24.862Z,12.23
2018-12-04T04:50:54.011Z,10.23
2018-12-04T04:53:23.138Z,12.57
2018-12-04T04:55:52.329Z,13.97
2018-12-04T04:58:21.508Z,12.00
2018-12-04T05:00:50.690Z,11.00
2018-12-04T05:03:19.822Z,14.13
2018-12-04T05:05:49.030Z,15.47
2018-12-04T05:08:18.135Z,11.63
2018-12-04T05:10:47.331Z,14.30
2018-12-04T05:13:16.510Z,14.43
2018-12-04T05:15:45.657Z,8.83
2018-12-04T05:18:14.766Z,10.43
2018-12-04T05:20:44.098Z,11.13
2018-12-04T05:23:13.799Z,8.53
2018-12-04T05:25:42.943Z,11.07
2018-12-04T05:28:12.345Z,13.73
2018-12-04T05:30:42.342Z,14.17
2018-12-04T05:33:12.282Z,13.43
2018-12-04T05:35:42.390Z,11.20
2018-12-04T05:38:11.674Z,8.77
2018-12-04T05:40:41.021Z,11.70
2018-12-04T05:43:10.264Z,13.33
2018-12-04T05:45:39.560Z,10.00
2018-12-04T05:48:08.877Z,12.03
2018-12-04T05:50:38.207Z,12.47
2018-12-04T05:53:18.704Z,13.37
2018-12-04T05:55:48.007Z,11.17
2018-12-04T05:58:17.196Z,11.20
2018-12-04T06:00:46.582Z,9.57
2018-12-04T06:03:15.776Z,14.73
2018-12-04T06:05:44.998Z,10.03
2018-12-04T06:08:14.218Z,11.73
2018-12-04T06:10:43.656Z,12.57
2018-12-04T06:13:12.930Z,13.47
2018-12-04T06:15:42.224Z,8.50
2018-12-04T06:18:11.735Z,13.27
2018-12-04T06:20:41.187Z,16.40
2018-12-04T06:23:10.439Z,13.17
2018-12-04T06:25:39.846Z,15.10
2018-12-04T06:28:09.091Z,12.80
2018-12-04T06:30:38.577Z,11.27
2018-12-04T06:33:07.809Z,13.70
2018-12-04T06:35:38.173Z,13.47
2018-12-04T06:38:07.586Z,15.13
2018-12-04T06:40:37.073Z,13.33
2018-12-04T06:43:07.193Z,10.77
2018-12-04T06:45:36.554Z,11.20
2018-12-04T06:48:06.698Z,12.00
2018-12-04T06:50:35.929Z,10.90
2018-12-04T06:53:06.078Z,11.97
2018-12-04T06:55:36.334Z,16.73
2018-12-04T06:58:06.774Z,12.40
2018-12-04T07:00:36.574Z,7.70
2018-12-04T07:03:06.134Z,6.50
2018-12-04T07:05:35.513Z,10.13
2018-12-04T07:08:05.887Z,10.43
2018-12-04T07:10:35.178Z,12.53
2018-12-04T07:13:04.875Z,11.80
2018-12-04T07:15:34.242Z,10.83
2018-12-04T07:18:03.510Z,12.47
2018-12-04T07:20:32.782Z,7.73
2018-12-04T07:23:01.918Z,8.60
2018-12-04T07:25:31.227Z,11.37
2018-12-04T07:28:00.580Z,13.10
2018-12-04T07:30:29.887Z,11.50
2018-12-04T07:32:59.359Z,11.03
2018-12-04T07:35:28.987Z,9.43
2018-12-04T07:37:58.338Z,9.30
2018-12-04T07:40:27.581Z,7.77
2018-12-04T07:42:56.893Z,7.63
2018-12-04T07:45:26.274Z,8.17
2018-12-04T07:47:55.666Z,11.70
2018-12-04T07:50:24.888Z,9.80
2018-12-04T07:52:54.150Z,6.03
2018-12-04T07:55:24.052Z,10.20
2018-12-04T07:57:53.277Z,7.90
2018-12-04T08:00:22.503Z,8.27
2018-12-04T08:02:51.885Z,8.80
2018-12-04T08:05:21.100Z,9.33
2018-12-04T08:07:50.278Z,11.67
2018-12-04T08:10:19.703Z,10.47
2018-12-04T08:12:48.949Z,7.80
2018-12-04T08:15:18.306Z,10.60
2018-12-04T08:17:47.530Z,10.00
2018-12-04T08:20:17.181Z,9.77
2018-12-04T08:22:46.336Z,9.43
2018-12-04T08:25:15.865Z,7.03
2018-12-04T08:27:45.050Z,6.37
2018-12-04T08:30:14.926Z,9.83
2018-12-04T08:32:45.244Z,8.13
2018-12-04T08:35:14.926Z,7.97
2018-12-04T08:37:45.130Z,8.03
2018-12-04T08:40:14.334Z,7.60
2018-12-04T08:42:43.626Z,9.13
2018-12-04T08:45:14.085Z,9.87
2018-12-04T08:47:43.236Z,7.83
2018-12-04T08:50:12.445Z,9.93
2018-12-04T08:52:41.922Z,3.90
2018-12-04T08:55:11.711Z,7.30
2018-12-04T08:57:40.921Z,7.67
2018-12-04T09:00:10.946Z,7.33
2018-12-04T09:02:40.162Z,9.33
2018-12-04T09:05:10.718Z,9.00
2018-12-04T09:07:40.160Z,4.07
2018-12-04T09:10:09.622Z,9.13
2018-12-04T09:12:38.886Z,4.60
2018-12-04T09:15:08.370Z,6.40
2018-12-04T09:17:38.611Z,5.73
2018-12-04T09:20:08.736Z,5.07
2018-12-04T09:22:38.123Z,6.10
2018-12-04T09:25:07.412Z,5.67
2018-12-04T09:27:36.723Z,5.30
2018-12-04T09:30:08.666Z,8.67
2018-12-04T09:32:37.854Z,4.90
2018-12-04T09:35:07.059Z,10.40
2018-12-04T09:37:36.234Z,4.03
2018-12-04T09:40:06.688Z,4.63
2018-12-04T09:42:37.270Z,7.90
2018-12-04T09:45:08.068Z,7.43
2018-12-04T09:47:37.197Z,7.17
2018-12-04T09:50:07.906Z,5.77
2018-12-04T09:52:37.067Z,8.00
2018-12-04T09:55:06.442Z,4.77
2018-12-04T09:57:35.660Z,4.30
2018-12-04T10:00:06.410Z,4.97
2018-12-04T10:02:35.492Z,4.77
2018-12-04T10:05:05.303Z,2.03
2018-12-04T10:07:34.540Z,2.33
2018-12-04T10:10:04.594Z,3.13
2018-12-04T10:12:33.730Z,2.77
2018-12-04T10:15:02.847Z,3.77
2018-12-04T10:17:31.997Z,0.63
2018-12-04T10:20:01.417Z,3.10
2018-12-04T10:22:30.562Z,0.63
2018-12-04T10:24:59.766Z,2.47
2018-12-04T10:27:29.250Z,2.57
2018-12-04T10:29:58.297Z,2.43
2018-12-04T10:32:27.326Z,3.03
2018-12-04T10:34:56.573Z,2.90
2018-12-04T10:37:25.705Z,4.17
2018-12-04T10:39:54.899Z,5.37
2018-12-04T10:42:24.082Z,4.23
2018-12-04T10:44:53.890Z,1.33
2018-12-04T10:47:23.061Z,3.73
2018-12-04T10:49:52.130Z,3.93
2018-12-04T10:52:21.496Z,2.00
2018-12-04T10:54:50.590Z,1.80
2018-12-04T10:57:19.658Z,3.17
2018-12-04T10:59:48.730Z,2.53
2018-12-04T11:02:25.010Z,3.83
2018-12-04T11:04:54.067Z,3.23
2018-12-04T11:07:23.236Z,3.53
2018-12-04T11:09:52.449Z,2.03
2018-12-04T11:12:21.836Z,3.53
2018-12-04T11:14:50.978Z,2.07
2018-12-04T11:17:20.235Z,1.10
2018-12-04T11:19:49.286Z,1.73
2018-12-04T11:22:18.921Z,3.17
2018-12-04T11:24:48.027Z,1.33
2018-12-04T11:27:17.878Z,4.10
2018-12-04T11:29:46.959Z,1.90
2018-12-04T11:32:16.138Z,2.47
2018-12-04T11:34:45.830Z,3.50
2018-12-04T11:37:15.039Z,2.03
2018-12-04T11:39:44.250Z,1.50
2018-12-04T11:42:13.435Z,1.03
2018-12-04T11:44:42.581Z,3.13
2018-12-04T11:47:12.313Z,1.83
2018-12-04T11:49:41.395Z,1.23
2018-12-04T11:52:10.606Z,2.40
2018-12-04T11:54:41.066Z,0.67
2018-12-04T11:57:11.358Z,2.23
2018-12-04T11:59:47.036Z,5.20
2018-12-04T12:02:16.253Z,1.63
2018-12-04T12:04:45.434Z,2.73
2018-12-04T12:07:20.561Z,3.23
2018-12-04T12:09:48.174Z,4.30
2018-12-04T12:12:18.273Z,4.37
2018-12-04T12:14:47.894Z,4.63
2018-12-04T12:17:18.311Z,7.43
2018-12-04T12:19:47.392Z,3.97
2018-12-04T12:22:16.698Z,6.03
2018-12-04T12:24:45.882Z,5.07
2018-12-04T12:27:15.061Z,5.90
2018-12-04T12:29:44.280Z,4.23
2018-12-04T12:32:13.494Z,6.37
2018-12-04T12:34:42.510Z,7.83
2018-12-04T12:37:11.610Z,7.90
2018-12-04T12:39:40.786Z,3.57
2018-12-04T12:42:09.938Z,6.93
2018-12-04T12:44:39.043Z,7.00
2018-12-04T12:47:08.298Z,4.80
2018-12-04T12:49:37.402Z,6.17
2018-12-04T12:52:06.519Z,6.00
2018-12-04T12:54:35.892Z,10.53
2018-12-04T12:57:05.043Z,10.73
2018-12-04T12:59:34.177Z,9.03
2018-12-04T13:02:03.435Z,3.03
2018-12-04T13:04:32.485Z,6.03
2018-12-04T13:07:01.578Z,6.87
2018-12-04T13:09:30.730Z,7.50
2018-12-04T13:12:00.408Z,6.60
2018-12-04T13:14:29.984Z,4.93
2018-12-04T13:16:59.304Z,4.53
2018-12-04T13:19:28.414Z,8.10
2018-12-04T13:21:57.438Z,8.83
2018-12-04T13:24:26.534Z,5.17
2018-12-04T13:26:55.625Z,5.80
2018-12-04T13:29:25.624Z,7.33
2018-12-04T13:31:54.721Z,5.00
2018-12-04T13:34:24.462Z,4.80
2018-12-04T13:36:53.602Z,3.33
2018-12-04T13:39:22.783Z,6.07
2018-12-04T13:41:52.198Z,9.53
2018-12-04T13:44:21.318Z,6.03
2018-12-04T13:46:50.623Z,2.60
2018-12-04T13:49:19.651Z,4.80
2018-12-04T13:51:48.809Z,4.77
2018-12-04T13:54:17.906Z,1.40
2018-12-04T13:56:46.934Z,4.53
2018-12-04T13:59:16.279Z,4.17
2018-12-04T14:01:45.479Z,4.63
2018-12-04T14:04:17.142Z,5.47
2018-12-04T14:06:46.230Z,3.30
2018-12-04T14:09:15.374Z,4.23
2018-12-04T14:11:44.690Z,3.97
2018-12-04T14:14:13.830Z,4.73
2018-12-04T14:16:43.002Z,3.57
2018-12-04T14:19:12.353Z,4.73
2018-12-04T14:21:41.591Z,3.53
2018-12-04T14:24:10.822Z,3.00
2018-12-04T14:26:39.954Z,7.50
2018-12-04T14:29:09.131Z,2.63
2018-12-04T14:31:38.442Z,3.70
2018-12-04T14:34:07.546Z,4.43
2018-12-04T14:36:36.614Z,1.30
2018-12-04T14:39:09.035Z,3.63
2018-12-04T14:41:39.032Z,1.60
2018-12-04T14:44:08.179Z,4.10
2018-12-04T14:49:12.822Z,5.17
2018-12-04T14:51:42.368Z,4.13
2018-12-04T14:54:11.514Z,1.73
2018-12-04T14:56:40.750Z,1.50
2018-12-04T14:59:09.976Z,3.70
2018-12-04T15:01:39.207Z,2.50
2018-12-04T15:04:08.384Z,5.43
2018-12-04T15:06:37.626Z,4.10
2018-12-04T15:09:07.686Z,5.47
2018-12-04T15:11:36.966Z,2.20
2018-12-04T15:14:06.158Z,5.00
2018-12-04T15:16:35.489Z,5.70
2018-12-04T15:19:04.670Z,2.50
2018-12-04T15:21:33.958Z,2.17
2018-12-04T15:24:03.285Z,3.97
2018-12-04T15:26:32.632Z,2.67
2018-12-04T15:29:01.867Z,8.13
2018-12-04T15:31:31.346Z,4.00
2018-12-04T15:34:00.567Z,5.40
2018-12-04T15:36:30.366Z,4.70
2018-12-04T15:38:59.534Z,4.37
2018-12-04T15:41:28.746Z,5.77
2018-12-04T15:43:58.555Z,3.73
2018-12-04T15:46:27.790Z,4.10
2018-12-04T15:48:59.626Z,4.07
2018-12-04T15:51:28.820Z,2.87
2018-12-04T15:53:58.023Z,1.57
2018-12-04T15:56:27.342Z,2.67
2018-12-04T15:58:56.454Z,2.07
2018-12-04T16:01:25.623Z,5.83
2018-12-04T16:03:54.803Z,3.73
2018-12-04T16:06:23.837Z,3.70
2018-12-04T16:08:52.998Z,3.17
2018-12-04T16:11:22.054Z,4.10
2018-12-04T16:13:51.134Z,1.80
2018-12-04T16:16:20.454Z,2.63
2018-12-04T16:18:49.566Z,2.73
2018-12-04T16:21:18.654Z,2.70
2018-12-04T16:23:48.563Z,2.20
2018-12-04T16:26:17.643Z,3.17
2018-12-04T16:28:47.174Z,3.60
2018-12-04T16:31:16.247Z,1.57
2018-12-04T16:33:45.449Z,3.47
2018-12-04T16:36:14.587Z,3.10
2018-12-04T16:38:43.616Z,4.70
2018-12-04T16:41:12.823Z,3.77
2018-12-04T16:43:41.998Z,8.73
2018-12-04T16:46:11.104Z,4.13
2018-12-04T16:48:40.211Z,1.77
2018-12-04T16:51:09.421Z,2.00
2018-12-04T16:53:38.712Z,3.07
2018-12-04T16:56:07.848Z,5.57
2018-12-04T16:58:37.090Z,6.23
2018-12-04T17:01:06.250Z,6.63
2018-12-04T17:03:35.811Z,2.90
2018-12-04T17:06:04.989Z,2.93
2018-12-04T17:08:35.079Z,2.90
2018-12-04T17:11:04.150Z,2.37
2018-12-04T17:13:33.188Z,2.87
2018-12-04T17:16:03.264Z,4.60
2018-12-04T17:18:37.643Z,1.90
2018-12-04T17:21:03.545Z,2.00
2018-12-04T17:23:32.674Z,1.90
2018-12-04T17:26:01.958Z,1.57
2018-12-04T17:28:31.080Z,4.37
2018-12-04T17:31:00.200Z,3.90
2018-12-04T17:33:29.276Z,3.90
2018-12-04T17:35:58.479Z,5.33
2018-12-04T17:38:33.946Z,3.77
2018-12-04T17:41:03.102Z,5.07
2018-12-04T17:43:32.250Z,3.63
2018-12-04T17:46:01.301Z,4.57
2018-12-04T17:48:30.383Z,3.30
2018-12-04T17:51:00.437Z,3.10
2018-12-04T17:53:29.523Z,3.10
2018-12-04T17:55:58.610Z,4.37
2018-12-04T17:58:27.682Z,5.60
2018-12-04T18:00:56.805Z,1.90
2018-12-04T18:03:26.106Z,4.20
2018-12-04T18:05:55.262Z,4.17
2018-12-04T18:08:24.391Z,4.77
2018-12-04T18:10:55.631Z,4.57
2018-12-04T18:13:24.706Z,2.67
2018-12-04T18:15:55.814Z,2.43
2018-12-04T18:18:24.974Z,3.43
2018-12-04T18:20:54.090Z,4.97
2018-12-04T18:23:23.211Z,3.37
2018-12-04T18:25:52.338Z,6.13
2018-12-04T18:28:21.879Z,3.20
2018-12-04T18:30:50.999Z,6.13
2018-12-04T18:33:20.322Z,5.20
2018-12-04T18:35:49.440Z,3.83
2018-12-04T18:38:18.542Z,7.10
2018-12-04T18:40:47.743Z,2.57
2018-12-04T18:43:17.059Z,1.47
2018-12-04T18:45:46.094Z,3.67
2018-12-04T18:48:15.378Z,3.63
2018-12-04T18:50:44.492Z,5.30
2018-12-04T18:53:13.852Z,3.83
2018-12-04T18:55:43.291Z,8.73
2018-12-04T18:58:12.482Z,3.40
2018-12-04T19:00:42.158Z,4.40
2018-12-04T19:03:11.334Z,6.70
2018-12-04T19:05:40.848Z,3.93
2018-12-04T19:08:10.298Z,2.47
2018-12-04T19:10:39.442Z,2.83
2018-12-04T19:13:08.528Z,3.07
2018-12-04T19:15:37.562Z,5.30
2018-12-04T19:18:06.843Z,3.67
2018-12-04T19:20:35.913Z,7.07
2018-12-04T19:23:05.074Z,2.50
2018-12-04T19:25:34.217Z,6.20
2018-12-04T19:28:03.342Z,4.83
2018-12-04T19:30:32.506Z,4.63
2018-12-04T19:33:01.736Z,6.33
2018-12-04T19:35:30.862Z,4.67
2018-12-04T19:37:59.887Z,3.97
2018-12-04T19:40:29.038Z,4.07
2018-12-04T19:42:58.236Z,7.87
2018-12-04T19:45:27.386Z,5.80
2018-12-04T19:47:56.426Z,3.80
2018-12-04T19:50:25.550Z,5.07
2018-12-04T19:52:54.739Z,3.60
2018-12-04T19:55:23.827Z,4.00
2018-12-04T19:57:53.058Z,3.97
2018-12-04T20:00:22.123Z,3.53
2018-12-04T20:02:51.337Z,6.43
2018-12-04T20:05:20.513Z,1.53
2018-12-04T20:07:49.771Z,3.10
2018-12-04T20:10:18.995Z,2.97
2018-12-04T20:12:48.158Z,8.30
2018-12-04T20:15:17.382Z,2.50
2018-12-04T20:17:46.629Z,4.20
2018-12-04T20:20:15.856Z,3.07
2018-12-04T20:22:45.518Z,6.20
2018-12-04T20:25:14.834Z,4.57
2018-12-04T20:27:44.302Z,5.42
2018-12-04T20:30:14.361Z,3.63
2018-12-04T20:32:45.352Z,6.10
2018-12-04T20:35:15.253Z,4.90
2018-12-04T20:37:44.565Z,5.43
2018-12-04T20:40:13.823Z,4.93
2018-12-04T20:42:43.404Z,3.70
2018-12-04T20:45:12.826Z,3.70
2018-12-04T20:47:42.322Z,5.03
2018-12-04T20:50:11.774Z,4.30
2018-12-04T20:52:40.983Z,4.17
2018-12-04T20:55:10.034Z,7.20
2018-12-04T20:57:39.223Z,2.83
2018-12-04T21:00:11.318Z,6.83
2018-12-04T21:02:40.616Z,1.00
2018-12-04T21:05:09.873Z,3.40
2018-12-04T21:07:38.966Z,5.20
2018-12-04T21:10:08.141Z,4.47
2018-12-04T21:12:37.175Z,3.17
2018-12-04T21:15:06.814Z,2.93
2018-12-04T21:17:35.928Z,3.47
2018-12-04T21:20:05.967Z,4.13
2018-12-04T21:22:35.099Z,3.00
2018-12-04T21:25:04.549Z,4.43
2018-12-04T21:27:39.015Z,3.67
2018-12-04T21:30:15.730Z,4.23
2018-12-04T21:32:50.350Z,8.57
2018-12-04T21:35:24.980Z,2.87
2018-12-04T21:38:00.192Z,7.80
2018-12-04T21:40:34.738Z,5.47
2018-12-04T21:43:09.216Z,5.20
2018-12-04T21:45:43.563Z,3.43
2018-12-04T21:48:13.798Z,2.47
2018-12-04T21:50:42.863Z,4.20
2018-12-04T21:53:11.874Z,4.27
2018-12-04T21:55:41.570Z,4.00
2018-12-04T21:58:10.962Z,5.67
2018-12-04T22:00:40.079Z,3.03
2018-12-04T22:03:09.282Z,4.87
2018-12-04T22:05:38.499Z,2.30
2018-12-04T22:08:07.738Z,3.17
2018-12-04T22:10:36.898Z,5.30
2018-12-04T22:13:06.144Z,4.83
2018-12-04T22:15:35.362Z,4.63
2018-12-04T22:18:04.735Z,3.97
2018-12-04T22:20:33.843Z,2.13
2018-12-04T22:23:03.042Z,4.53
2018-12-04T22:25:32.065Z,4.63
2018-12-04T22:28:01.386Z,3.77
2018-12-04T22:30:30.469Z,6.10
2018-12-04T22:32:59.770Z,4.17
2018-12-04T22:35:28.978Z,5.47
2018-12-04T22:37:58.225Z,3.30
2018-12-04T22:40:27.432Z,3.07
2018-12-04T22:42:56.558Z,5.03
2018-12-04T22:45:26.440Z,6.00
2018-12-04T22:47:56.980Z,2.60
2018-12-04T22:50:26.409Z,4.20
2018-12-04T22:52:55.574Z,3.87
2018-12-04T22:55:24.887Z,2.67
2018-12-04T22:57:54.098Z,5.20
2018-12-04T23:00:35.725Z,4.23
2018-12-04T23:03:07.056Z,1.73
2018-12-04T23:05:37.139Z,3.63
2018-12-04T23:08:06.421Z,4.13
2018-12-04T23:10:35.630Z,3.73
2018-12-04T23:13:04.950Z,1.33
2018-12-04T23:15:34.127Z,4.13
2018-12-04T23:18:03.445Z,1.73
2018-12-04T23:20:32.766Z,4.40
2018-12-04T23:23:03.743Z,1.90
2018-12-04T23:25:33.070Z,2.80
2018-12-04T23:28:02.548Z,2.07
2018-12-04T23:30:31.974Z,3.10
2018-12-04T23:33:01.282Z,2.93
2018-12-04T23:35:30.543Z,5.70
2018-12-04T23:37:59.756Z,3.10
2018-12-04T23:40:29.975Z,4.53
2018-12-04T23:42:59.146Z,3.13
2018-12-04T23:45:28.496Z,4.53
2018-12-04T23:48:00.882Z,2.90
2018-12-04T23:50:30.126Z,4.17
2018-12-04T23:52:59.491Z,2.57
2018-12-04T23:55:28.698Z,2.53
2018-12-04T23:57:57.902Z,2.00
